createdAt,value
2018-10-16T00:00:01.318Z,19.13
2018-10-16T00:02:30.291Z,17.27
2018-10-16T00:04:59.180Z,18.70
2018-10-16T00:07:28.268Z,17.87
2018-10-16T00:09:57.533Z,18.50
2018-10-16T00:12:27.496Z,17.57
2018-10-16T00:14:56.660Z,18.23
2018-10-16T00:17:26.142Z,17.80
2018-10-16T00:19:55.554Z,18.33
2018-10-16T00:22:24.608Z,18.50
2018-10-16T00:24:53.773Z,19.13
2018-10-16T00:27:23.365Z,18.07
2018-10-16T00:29:52.945Z,19.50
2018-10-16T00:32:22.278Z,18.17
2018-10-16T00:34:51.502Z,18.07
2018-10-16T00:37:20.901Z,19.07
2018-10-16T00:39:50.119Z,17.20
2018-10-16T00:42:18.980Z,18.77
2018-10-16T00:44:47.989Z,17.70
2018-10-16T00:47:17.400Z,17.67
2018-10-16T00:49:46.372Z,18.03
2018-10-16T00:52:15.586Z,18.43
2018-10-16T00:54:45.261Z,18.47
2018-10-16T00:57:14.336Z,17.80
2018-10-16T00:59:43.361Z,17.70
2018-10-16T01:02:14.788Z,18.83
2018-10-16T01:04:43.642Z,18.30
2018-10-16T01:07:12.598Z,18.77
2018-10-16T01:09:41.612Z,19.20
2018-10-16T01:12:11.304Z,18.97
2018-10-16T01:14:40.372Z,19.37
2018-10-16T01:17:09.603Z,18.87
2018-10-16T01:19:38.634Z,18.40
2018-10-16T01:22:07.901Z,18.90
2018-10-16T01:24:36.878Z,19.43
2018-10-16T01:27:05.849Z,20.17
2018-10-16T01:29:34.927Z,19.40
2018-10-16T01:32:03.940Z,18.63
2018-10-16T01:34:32.966Z,19.80
2018-10-16T01:37:02.070Z,18.60
2018-10-16T01:39:31.272Z,19.73
2018-10-16T01:42:00.214Z,18.83
2018-10-16T01:44:29.357Z,19.10
2018-10-16T01:46:58.539Z,19.27
2018-10-16T01:49:27.701Z,18.40
2018-10-16T01:51:56.739Z,18.73
2018-10-16T01:54:26.317Z,18.77
2018-10-16T01:56:55.298Z,17.67
2018-10-16T01:59:24.464Z,18.23
2018-10-16T02:01:54.222Z,17.93
2018-10-16T02:04:23.214Z,18.63
2018-10-16T02:06:52.517Z,19.83
2018-10-16T02:09:23.107Z,18.47
2018-10-16T02:11:52.092Z,17.97
2018-10-16T02:14:21.419Z,18.03
2018-10-16T02:16:50.611Z,18.03
2018-10-16T02:19:19.744Z,18.20
2018-10-16T02:21:49.279Z,18.30
2018-10-16T02:24:18.772Z,19.10
2018-10-16T02:26:47.988Z,19.07
2018-10-16T02:29:17.095Z,18.07
2018-10-16T02:31:46.513Z,18.63
2018-10-16T02:34:15.496Z,18.17
2018-10-16T02:36:44.498Z,17.97
2018-10-16T02:39:13.976Z,19.60
2018-10-16T02:41:42.989Z,17.93
2018-10-16T02:44:12.368Z,18.57
2018-10-16T02:46:41.770Z,18.50
2018-10-16T02:49:10.579Z,17.73
2018-10-16T02:51:39.562Z,17.70
2018-10-16T02:54:08.624Z,17.63
2018-10-16T02:56:37.853Z,17.33
2018-10-16T02:59:06.858Z,16.90
2018-10-16T03:01:36.096Z,18.23
2018-10-16T03:04:05.288Z,21.03
2018-10-16T03:06:34.252Z,16.40
2018-10-16T03:09:03.492Z,17.93
2018-10-16T03:11:32.564Z,17.23
2018-10-16T03:14:01.523Z,17.17
2018-10-16T03:16:30.607Z,17.40
2018-10-16T03:19:00.155Z,17.70
2018-10-16T03:21:29.176Z,17.97
2018-10-16T03:23:58.622Z,16.53
2018-10-16T03:26:28.055Z,17.10
2018-10-16T03:28:56.996Z,18.40
2018-10-16T03:31:26.245Z,17.57
2018-10-16T03:33:55.544Z,17.57
2018-10-16T03:36:24.645Z,17.80
2018-10-16T03:38:53.686Z,17.60
2018-10-16T03:41:22.683Z,17.40
2018-10-16T03:43:59.114Z,16.77
2018-10-16T03:46:28.507Z,18.07
2018-10-16T03:48:57.585Z,17.67
2018-10-16T03:51:26.921Z,18.83
2018-10-16T03:53:56.681Z,17.33
2018-10-16T03:56:26.585Z,17.00
2018-10-16T03:58:56.109Z,17.87
2018-10-16T04:01:26.407Z,17.13
2018-10-16T04:03:55.600Z,18.13
2018-10-16T04:06:25.111Z,18.10
2018-10-16T04:08:54.390Z,16.53
2018-10-16T04:11:23.381Z,17.23
2018-10-16T04:13:52.529Z,17.20
2018-10-16T04:16:21.432Z,17.03
2018-10-16T04:18:50.473Z,17.13
2018-10-16T04:21:19.864Z,17.63
2018-10-16T04:23:49.000Z,16.23
2018-10-16T04:26:17.953Z,18.17
2018-10-16T04:28:47.376Z,17.07
2018-10-16T04:31:16.356Z,18.13
2018-10-16T04:33:45.425Z,18.87
2018-10-16T04:36:14.720Z,18.03
2018-10-16T04:38:43.880Z,21.13
2018-10-16T04:41:13.267Z,18.30
2018-10-16T04:43:42.513Z,18.13
2018-10-16T04:46:11.767Z,17.60
2018-10-16T04:48:40.853Z,19.20
2018-10-16T04:51:09.804Z,18.20
2018-10-16T04:53:38.828Z,17.90
2018-10-16T04:56:07.893Z,18.30
2018-10-16T04:58:37.244Z,18.40
2018-10-16T05:01:07.414Z,18.43
2018-10-16T05:03:36.672Z,17.70
2018-10-16T05:06:05.768Z,19.80
2018-10-16T05:08:34.840Z,18.67
2018-10-16T05:11:04.551Z,18.93
2018-10-16T05:13:33.601Z,19.37
2018-10-16T05:16:02.767Z,18.57
2018-10-16T05:18:31.751Z,19.73
2018-10-16T05:21:00.781Z,20.13
2018-10-16T05:23:30.128Z,20.40
2018-10-16T05:25:59.506Z,20.60
2018-10-16T05:28:28.416Z,20.17
2018-10-16T05:30:57.481Z,20.03
2018-10-16T05:33:27.995Z,18.00
2018-10-16T05:35:57.192Z,19.23
2018-10-16T05:38:26.327Z,19.43
2018-10-16T05:40:56.451Z,20.03
2018-10-16T05:43:25.746Z,23.63
2018-10-16T05:45:54.805Z,20.50
2018-10-16T05:48:24.964Z,20.50
2018-10-16T05:50:53.942Z,19.23
2018-10-16T05:53:23.364Z,18.37
2018-10-16T05:56:06.799Z,19.30
2018-10-16T05:58:36.364Z,18.47
2018-10-16T06:01:05.339Z,19.40
2018-10-16T06:03:34.628Z,19.87
2018-10-16T06:06:03.984Z,20.63
2018-10-16T06:08:32.843Z,18.93
2018-10-16T06:11:01.981Z,17.43
2018-10-16T06:13:30.936Z,19.40
2018-10-16T06:16:00.077Z,18.13
2018-10-16T06:18:29.180Z,18.43
2018-10-16T06:20:58.440Z,19.77
2018-10-16T06:23:27.432Z,18.20
2018-10-16T06:25:56.577Z,18.50
2018-10-16T06:28:26.876Z,21.63
2018-10-16T06:30:55.968Z,16.93
2018-10-16T06:33:27.432Z,16.83
2018-10-16T06:35:56.793Z,16.47
2018-10-16T06:38:26.067Z,14.97
2018-10-16T06:40:55.458Z,16.03
2018-10-16T06:43:24.316Z,15.83
2018-10-16T06:45:53.724Z,14.97
2018-10-16T06:48:23.222Z,14.57
2018-10-16T06:50:52.202Z,14.03
2018-10-16T06:53:21.387Z,14.00
2018-10-16T06:55:50.616Z,13.23
2018-10-16T06:58:19.567Z,13.40
2018-10-16T07:00:49.359Z,14.03
2018-10-16T07:03:18.691Z,13.90
2018-10-16T07:05:48.217Z,13.60
2018-10-16T07:08:17.509Z,12.37
2018-10-16T07:10:46.944Z,12.23
2018-10-16T07:13:15.996Z,11.53
2018-10-16T07:15:44.993Z,14.37
2018-10-16T07:18:14.051Z,11.03
2018-10-16T07:20:43.230Z,10.83
2018-10-16T07:23:12.373Z,11.03
2018-10-16T07:25:41.601Z,11.43
2018-10-16T07:28:10.506Z,11.17
2018-10-16T07:30:39.815Z,12.00
2018-10-16T07:33:09.283Z,9.90
2018-10-16T07:35:38.525Z,10.10
2018-10-16T07:38:07.692Z,9.63
2018-10-16T07:40:36.981Z,9.90
2018-10-16T07:43:06.093Z,9.53
2018-10-16T07:45:35.410Z,9.10
2018-10-16T07:48:04.589Z,10.90
2018-10-16T07:50:33.544Z,8.40
2018-10-16T07:53:02.569Z,7.87
2018-10-16T07:55:31.643Z,7.80
2018-10-16T07:58:01.113Z,8.93
2018-10-16T08:00:30.185Z,6.97
2018-10-16T08:02:59.544Z,6.83
2018-10-16T08:05:29.169Z,6.17
2018-10-16T08:07:58.404Z,5.93
2018-10-16T08:10:27.506Z,5.40
2018-10-16T08:12:56.353Z,4.97
2018-10-16T08:15:25.653Z,4.63
2018-10-16T08:17:55.608Z,4.17
2018-10-16T08:20:24.860Z,4.40
2018-10-16T08:22:53.981Z,4.47
2018-10-16T08:25:23.348Z,3.20
2018-10-16T08:27:52.767Z,3.33
2018-10-16T08:30:21.920Z,3.53
2018-10-16T08:32:50.896Z,3.13
2018-10-16T08:35:20.364Z,3.97
2018-10-16T08:40:02.351Z,3.20
2018-10-16T08:44:45.310Z,2.93
2018-10-16T08:47:25.228Z,2.37
2018-10-16T08:50:05.329Z,2.10
2018-10-16T08:52:34.572Z,2.30
2018-10-16T08:55:03.471Z,2.47
2018-10-16T08:57:33.029Z,1.70
2018-10-16T09:00:02.206Z,1.60
2018-10-16T09:02:32.032Z,1.57
2018-10-16T09:05:01.138Z,2.20
2018-10-16T09:07:30.332Z,1.87
2018-10-16T09:09:59.651Z,1.77
2018-10-16T09:12:28.552Z,1.90
2018-10-16T09:14:57.947Z,1.67
2018-10-16T09:17:27.486Z,1.57
2018-10-16T09:19:56.451Z,1.83
2018-10-16T09:22:25.493Z,1.73
2018-10-16T09:24:54.600Z,2.17
2018-10-16T09:27:23.837Z,1.40
2018-10-16T09:29:52.860Z,1.60
2018-10-16T09:32:22.001Z,1.53
2018-10-16T09:34:51.055Z,1.70
2018-10-16T09:37:20.486Z,2.23
2018-10-16T09:39:49.999Z,1.60
2018-10-16T09:42:19.000Z,2.40
2018-10-16T09:44:47.992Z,1.50
2018-10-16T09:47:17.208Z,1.60
2018-10-16T09:49:46.392Z,1.77
2018-10-16T09:52:16.100Z,1.67
2018-10-16T09:54:46.205Z,1.60
2018-10-16T09:57:15.341Z,1.50
2018-10-16T09:59:44.406Z,2.50
2018-10-16T10:02:13.423Z,2.03
2018-10-16T10:04:42.436Z,2.00
2018-10-16T10:07:11.507Z,1.97
2018-10-16T10:09:40.609Z,1.80
2018-10-16T10:12:09.880Z,1.60
2018-10-16T10:14:38.932Z,1.70
2018-10-16T10:17:08.025Z,2.40
2018-10-16T10:19:37.043Z,2.03
2018-10-16T10:22:06.245Z,3.13
2018-10-16T10:24:35.363Z,2.17
2018-10-16T10:27:04.890Z,1.80
2018-10-16T10:29:34.635Z,3.63
2018-10-16T10:32:03.870Z,2.03
2018-10-16T10:34:32.815Z,3.57
2018-10-16T10:37:01.724Z,2.07
2018-10-16T10:39:30.684Z,1.60
2018-10-16T10:41:59.664Z,1.43
2018-10-16T10:44:28.701Z,1.47
2018-10-16T10:46:58.440Z,1.40
2018-10-16T10:49:28.904Z,1.67
2018-10-16T10:51:57.962Z,2.17
2018-10-16T10:54:26.971Z,1.30
2018-10-16T10:56:57.316Z,1.70
2018-10-16T10:59:26.100Z,1.53
2018-10-16T11:01:55.126Z,1.43
2018-10-16T11:04:24.209Z,1.67
2018-10-16T11:06:53.622Z,2.40
2018-10-16T11:09:23.003Z,2.53
2018-10-16T11:11:55.397Z,1.87
2018-10-16T11:14:25.216Z,1.80
2018-10-16T11:16:54.237Z,3.23
2018-10-16T11:19:23.763Z,2.10
2018-10-16T11:21:53.468Z,1.53
2018-10-16T11:24:22.390Z,1.60
2018-10-16T11:26:51.484Z,2.00
2018-10-16T11:29:21.033Z,1.83
2018-10-16T11:31:50.092Z,1.50
2018-10-16T11:34:19.090Z,1.60
2018-10-16T11:36:48.018Z,2.07
2018-10-16T11:39:17.692Z,2.37
2018-10-16T11:41:46.737Z,1.43
2018-10-16T11:44:16.184Z,2.47
2018-10-16T11:46:45.321Z,2.13
2018-10-16T11:49:14.657Z,1.30
2018-10-16T11:51:43.686Z,1.40
2018-10-16T11:54:13.196Z,1.73
2018-10-16T11:56:42.580Z,3.73
2018-10-16T11:59:11.686Z,2.70
2018-10-16T12:01:41.030Z,1.40
2018-10-16T12:04:10.430Z,2.50
2018-10-16T12:06:39.311Z,1.93
2018-10-16T12:09:09.620Z,1.87
2018-10-16T12:11:39.436Z,1.90
2018-10-16T12:14:09.070Z,1.20
2018-10-16T12:18:44.863Z,1.50
2018-10-16T12:21:21.298Z,1.53
2018-10-16T12:23:50.452Z,1.00
2018-10-16T12:26:20.620Z,0.93
2018-10-16T12:28:49.493Z,1.00
2018-10-16T12:31:18.871Z,1.10
2018-10-16T12:33:48.188Z,1.40
2018-10-16T12:36:17.104Z,1.57
2018-10-16T12:38:46.367Z,1.83
2018-10-16T12:41:16.143Z,1.23
2018-10-16T12:43:45.563Z,0.70
2018-10-16T12:46:14.740Z,1.10
2018-10-16T12:48:43.888Z,1.10
2018-10-16T12:51:13.039Z,1.30
2018-10-16T12:53:42.081Z,1.43
2018-10-16T12:56:11.579Z,2.03
2018-10-16T12:58:40.721Z,1.80
2018-10-16T13:01:10.444Z,1.90
2018-10-16T13:03:39.487Z,1.63
2018-10-16T13:06:08.703Z,2.30
2018-10-16T13:08:38.025Z,0.97
2018-10-16T13:11:07.494Z,1.70
2018-10-16T13:13:36.412Z,1.10
2018-10-16T13:16:05.565Z,0.67
2018-10-16T13:18:34.601Z,0.70
2018-10-16T13:21:03.493Z,1.03
2018-10-16T13:23:33.012Z,3.33
2018-10-16T13:26:02.258Z,0.77
2018-10-16T13:28:31.100Z,2.17
2018-10-16T13:31:00.615Z,1.27
2018-10-16T13:33:29.488Z,0.70
2018-10-16T13:35:58.628Z,1.43
2018-10-16T13:38:27.815Z,0.80
2018-10-16T13:40:57.165Z,1.50
2018-10-16T13:43:26.266Z,0.70
2018-10-16T13:45:55.539Z,1.50
2018-10-16T13:48:25.066Z,1.40
2018-10-16T13:50:54.061Z,0.80
2018-10-16T13:53:23.014Z,0.80
2018-10-16T13:55:52.315Z,1.00
2018-10-16T13:58:21.373Z,1.50
2018-10-16T14:00:50.746Z,0.70
2018-10-16T14:03:19.984Z,2.30
2018-10-16T14:05:49.060Z,0.90
2018-10-16T14:08:18.227Z,0.60
2018-10-16T14:10:47.562Z,1.00
2018-10-16T14:13:16.601Z,0.90
2018-10-16T14:15:45.537Z,0.70
2018-10-16T14:18:14.601Z,0.80
2018-10-16T14:20:43.548Z,0.73
2018-10-16T14:23:12.524Z,1.10
2018-10-16T14:25:41.520Z,1.33
2018-10-16T14:28:10.494Z,2.20
2018-10-16T14:30:39.637Z,0.77
2018-10-16T14:33:10.681Z,0.87
2018-10-16T14:35:39.718Z,2.50
2018-10-16T14:38:08.697Z,0.60
2018-10-16T14:40:37.731Z,0.70
2018-10-16T14:43:06.528Z,1.23
2018-10-16T14:45:35.790Z,0.73
2018-10-16T14:48:05.080Z,0.60
2018-10-16T14:50:34.122Z,1.03
2018-10-16T14:53:03.271Z,0.77
2018-10-16T14:55:32.456Z,0.80
2018-10-16T14:58:01.863Z,0.93
2018-10-16T15:00:30.794Z,0.87
2018-10-16T15:02:59.841Z,2.20
2018-10-16T15:05:28.855Z,0.73
2018-10-16T15:07:58.085Z,0.63
2018-10-16T15:10:27.315Z,0.70
2018-10-16T15:12:56.420Z,0.93
2018-10-16T15:15:25.446Z,1.33
2018-10-16T15:17:54.432Z,0.70
2018-10-16T15:20:23.908Z,1.13
2018-10-16T15:22:53.287Z,1.33
2018-10-16T15:25:22.476Z,0.90
2018-10-16T15:27:51.632Z,1.97
2018-10-16T15:30:20.554Z,1.30
2018-10-16T15:32:49.624Z,0.70
2018-10-16T15:35:18.857Z,2.07
2018-10-16T15:37:48.367Z,0.90
2018-10-16T15:40:17.356Z,1.87
2018-10-16T15:42:46.700Z,0.80
2018-10-16T15:45:15.988Z,1.27
2018-10-16T15:47:45.049Z,0.77
2018-10-16T15:50:14.377Z,1.00
2018-10-16T15:52:43.692Z,0.80
2018-10-16T15:55:12.941Z,0.80
2018-10-16T15:57:41.955Z,1.10
2018-10-16T16:00:14.557Z,2.40
2018-10-16T16:02:43.703Z,2.20
2018-10-16T16:05:13.020Z,1.73
2018-10-16T16:07:42.255Z,1.20
2018-10-16T16:10:14.024Z,0.87
2018-10-16T16:12:43.524Z,1.30
2018-10-16T16:15:13.324Z,1.77
2018-10-16T16:17:43.151Z,1.00
2018-10-16T16:20:13.529Z,1.30
2018-10-16T16:22:42.398Z,0.80
2018-10-16T16:25:12.607Z,1.20
2018-10-16T16:27:41.624Z,0.80
2018-10-16T16:30:12.683Z,1.00
2018-10-16T16:32:41.754Z,0.80
2018-10-16T16:35:11.973Z,1.17
2018-10-16T16:37:41.248Z,0.90
2018-10-16T16:40:11.957Z,1.13
2018-10-16T16:42:41.134Z,1.20
2018-10-16T16:45:10.813Z,4.30
2018-10-16T16:47:39.972Z,1.00
2018-10-16T16:50:10.314Z,1.10
2018-10-16T16:52:39.878Z,1.27
2018-10-16T16:55:10.512Z,1.00
2018-10-16T16:57:40.127Z,1.20
2018-10-16T17:00:11.374Z,1.33
2018-10-16T17:02:41.249Z,2.73
2018-10-16T17:05:11.261Z,1.10
2018-10-16T17:07:40.852Z,1.67
2018-10-16T17:10:10.104Z,1.67
2018-10-16T17:12:39.983Z,1.33
2018-10-16T17:15:11.562Z,0.97
2018-10-16T17:17:40.461Z,1.00
2018-10-16T17:20:10.851Z,1.23
2018-10-16T17:22:39.653Z,1.23
2018-10-16T17:25:10.609Z,1.13
2018-10-16T17:27:39.517Z,1.77
2018-10-16T17:30:10.391Z,1.30
2018-10-16T17:32:39.458Z,1.30
2018-10-16T17:35:09.686Z,2.23
2018-10-16T17:37:39.351Z,2.07
2018-10-16T17:40:10.700Z,1.67
2018-10-16T17:42:39.620Z,3.00
2018-10-16T17:45:10.552Z,3.17
2018-10-16T17:47:39.610Z,3.30
2018-10-16T17:50:11.525Z,2.00
2018-10-16T17:52:40.857Z,1.77
2018-10-16T17:55:10.955Z,2.63
2018-10-16T17:57:40.282Z,1.83
2018-10-16T18:00:13.062Z,3.90
2018-10-16T18:02:42.699Z,1.90
2018-10-16T18:05:12.373Z,1.50
2018-10-16T18:07:41.673Z,2.13
2018-10-16T18:10:11.052Z,1.70
2018-10-16T18:12:40.411Z,1.60
2018-10-16T18:15:11.566Z,1.93
2018-10-16T18:17:41.590Z,1.50
2018-10-16T18:20:12.522Z,1.57
2018-10-16T18:22:41.728Z,1.53
2018-10-16T18:25:11.994Z,1.93
2018-10-16T18:27:42.055Z,2.87
2018-10-16T18:30:11.461Z,1.90
2018-10-16T18:32:40.797Z,2.23
2018-10-16T18:35:10.356Z,2.63
2018-10-16T18:37:39.752Z,1.87
2018-10-16T18:40:09.997Z,1.80
2018-10-16T18:42:39.511Z,2.00
2018-10-16T18:45:09.357Z,1.87
2018-10-16T18:47:38.364Z,1.60
2018-10-16T18:50:08.265Z,1.30
2018-10-16T18:52:37.393Z,3.50
2018-10-16T18:55:08.196Z,1.40
2018-10-16T18:57:37.356Z,1.40
2018-10-16T19:00:07.526Z,2.90
2018-10-16T19:02:36.929Z,3.37
2018-10-16T19:05:06.576Z,1.93
2018-10-16T19:07:35.877Z,1.70
2018-10-16T19:10:05.370Z,1.30
2018-10-16T19:12:35.311Z,1.40
2018-10-16T19:15:04.737Z,3.63
2018-10-16T19:17:33.844Z,2.07
2018-10-16T19:20:03.308Z,1.57
2018-10-16T19:22:32.288Z,1.73
2018-10-16T19:25:01.625Z,1.73
2018-10-16T19:27:30.645Z,1.37
2018-10-16T19:29:59.491Z,1.27
2018-10-16T19:32:28.912Z,1.60
2018-10-16T19:34:58.372Z,1.27
2018-10-16T19:37:27.634Z,1.83
2018-10-16T19:39:56.867Z,1.47
2018-10-16T19:42:27.385Z,2.00
2018-10-16T19:44:56.537Z,1.30
2018-10-16T19:47:25.855Z,1.50
2018-10-16T19:49:54.850Z,1.47
2018-10-16T19:52:24.260Z,3.67
2018-10-16T19:54:53.793Z,1.50
2018-10-16T19:57:22.821Z,1.23
2018-10-16T19:59:52.134Z,1.67
2018-10-16T20:02:21.415Z,1.20
2018-10-16T20:04:51.219Z,1.80
2018-10-16T20:07:20.440Z,1.80
2018-10-16T20:09:49.640Z,1.60
2018-10-16T20:12:19.198Z,2.20
2018-10-16T20:14:48.218Z,1.83
2018-10-16T20:17:17.527Z,4.20
2018-10-16T20:19:46.847Z,2.10
2018-10-16T20:22:15.732Z,1.70
2018-10-16T20:24:45.222Z,2.00
2018-10-16T20:27:14.164Z,2.63
2018-10-16T20:29:43.312Z,1.70
2018-10-16T20:32:12.636Z,2.23
2018-10-16T20:34:41.717Z,1.80
2018-10-16T20:37:10.699Z,1.80
2018-10-16T20:39:40.129Z,2.47
2018-10-16T20:42:09.357Z,1.63
2018-10-16T20:44:38.488Z,2.63
2018-10-16T20:47:07.622Z,1.83
2018-10-16T20:49:36.552Z,1.70
2018-10-16T20:52:08.452Z,1.63
2018-10-16T20:54:37.822Z,2.17
2018-10-16T20:57:07.009Z,1.43
2018-10-16T20:59:35.953Z,1.60
2018-10-16T21:02:05.107Z,2.30
2018-10-16T21:04:33.972Z,2.30
2018-10-16T21:07:03.254Z,2.33
2018-10-16T21:09:31.976Z,2.00
2018-10-16T21:12:00.796Z,2.47
2018-10-16T21:14:30.220Z,2.50
2018-10-16T21:16:59.239Z,2.83
2018-10-16T21:19:28.527Z,4.07
2018-10-16T21:21:57.506Z,6.40
2018-10-16T21:24:26.760Z,2.57
2018-10-16T21:27:08.724Z,3.10
2018-10-16T21:29:38.101Z,3.17
2018-10-16T21:32:08.641Z,3.30
2018-10-16T21:34:37.919Z,3.30
2018-10-16T21:37:07.132Z,3.57
2018-10-16T21:39:36.345Z,3.93
2018-10-16T21:42:05.519Z,3.87
2018-10-16T21:44:35.004Z,3.50
2018-10-16T21:47:04.202Z,4.10
2018-10-16T21:49:33.289Z,3.57
2018-10-16T21:52:02.560Z,4.50
2018-10-16T21:54:31.690Z,3.80
2018-10-16T21:57:00.701Z,5.87
2018-10-16T21:59:30.224Z,4.30
2018-10-16T22:02:04.308Z,4.63
2018-10-16T22:04:33.640Z,4.77
2018-10-16T22:07:03.158Z,4.40
2018-10-16T22:09:32.314Z,4.97
2018-10-16T22:12:01.392Z,4.93
2018-10-16T22:14:30.324Z,5.17
2018-10-16T22:16:59.666Z,5.30
2018-10-16T22:19:28.739Z,6.90
2018-10-16T22:21:57.991Z,5.43
2018-10-16T22:24:26.997Z,5.33
2018-10-16T22:26:56.717Z,6.47
2018-10-16T22:29:26.218Z,6.10
2018-10-16T22:31:55.718Z,5.47
2018-10-16T22:34:24.732Z,5.43
2018-10-16T22:36:53.927Z,5.23
2018-10-16T22:39:23.319Z,6.33
2018-10-16T22:41:52.598Z,6.53
2018-10-16T22:44:21.656Z,6.33
2018-10-16T22:46:50.768Z,6.67
2018-10-16T22:49:20.336Z,5.03
2018-10-16T22:51:49.636Z,5.20
2018-10-16T22:54:18.861Z,5.60
2018-10-16T22:56:47.931Z,7.07
2018-10-16T22:59:17.503Z,6.30
2018-10-16T23:01:46.696Z,5.90
2018-10-16T23:04:15.834Z,6.07
2018-10-16T23:06:45.039Z,6.93
2018-10-16T23:09:14.371Z,6.87
2018-10-16T23:11:43.627Z,4.93
2018-10-16T23:14:12.961Z,7.57
2018-10-16T23:16:42.024Z,7.53
2018-10-16T23:19:11.263Z,7.87
2018-10-16T23:21:40.535Z,7.57
2018-10-16T23:24:09.599Z,5.63
2018-10-16T23:26:38.737Z,6.53
2018-10-16T23:29:08.040Z,6.67
2018-10-16T23:31:37.089Z,7.70
2018-10-16T23:34:06.485Z,5.73
2018-10-16T23:36:35.660Z,7.73
2018-10-16T23:39:08.375Z,8.00
2018-10-16T23:41:37.635Z,7.33
2018-10-16T23:44:07.008Z,7.73
2018-10-16T23:46:36.311Z,6.77
2018-10-16T23:49:06.411Z,7.70
2018-10-16T23:51:35.911Z,7.90
2018-10-16T23:54:05.155Z,7.20
2018-10-16T23:56:34.464Z,7.70
2018-10-16T23:59:03.474Z,6.87
